createdAt,value
2018-05-08T00:02:21.224Z,101121
2018-05-08T00:04:49.465Z,101124
2018-05-08T00:07:17.611Z,101114
2018-05-08T00:09:45.740Z,101117
2018-05-08T00:12:14.654Z,101112
2018-05-08T00:14:42.807Z,101106
2018-05-08T00:17:10.977Z,101112
2018-05-08T00:19:39.153Z,101116
2018-05-08T00:22:08.085Z,101118
2018-05-08T00:24:36.204Z,101113
2018-05-08T00:27:05.171Z,101111
2018-05-08T00:29:33.317Z,101105
2018-05-08T00:32:01.488Z,101111
2018-05-08T00:34:29.665Z,101103
2018-05-08T00:36:57.904Z,101110
2018-05-08T00:39:26.052Z,101100
2018-05-08T00:41:54.946Z,101108
2018-05-08T00:44:23.862Z,101116
2018-05-08T00:46:52.007Z,101110
2018-05-08T00:49:20.921Z,101108
2018-05-08T00:51:49.068Z,101109
2018-05-08T00:54:17.437Z,101099
2018-05-08T00:56:45.574Z,101094
2018-05-08T00:59:13.762Z,101082
2018-05-08T01:01:41.911Z,101090
2018-05-08T01:04:10.069Z,101094
2018-05-08T01:06:38.248Z,101088
2018-05-08T01:09:06.415Z,101089
2018-05-08T01:11:34.612Z,101082
2018-05-08T01:14:02.737Z,101086
2018-05-08T01:16:31.629Z,101086
2018-05-08T01:18:59.780Z,101087
2018-05-08T01:21:27.954Z,101074
2018-05-08T01:23:56.117Z,101084
2018-05-08T01:26:24.252Z,101090
2018-05-08T01:28:52.475Z,101090
2018-05-08T01:31:21.389Z,101089
2018-05-08T01:33:49.933Z,101171
2018-05-08T01:36:18.072Z,101085
2018-05-08T01:38:46.221Z,101085
2018-05-08T01:41:14.385Z,101091
2018-05-08T01:43:43.314Z,101089
2018-05-08T01:46:11.486Z,101087
2018-05-08T01:48:39.629Z,101089
2018-05-08T01:51:08.554Z,101084
2018-05-08T01:53:36.732Z,101085
2018-05-08T01:56:04.950Z,101087
2018-05-08T01:58:33.131Z,101090
2018-05-08T02:01:02.057Z,101085
2018-05-08T02:03:30.258Z,101087
2018-05-08T02:05:58.468Z,101079
2018-05-08T02:08:27.448Z,101083
2018-05-08T02:10:56.382Z,101079
2018-05-08T02:13:24.539Z,101083
2018-05-08T02:15:52.698Z,101077
2018-05-08T02:18:21.671Z,101076
2018-05-08T02:20:49.817Z,101081
2018-05-08T02:23:17.971Z,101081
2018-05-08T02:25:46.110Z,101083
2018-05-08T02:28:14.262Z,101077
2018-05-08T02:30:43.158Z,101085
2018-05-08T02:33:12.118Z,101072
2018-05-08T02:35:40.286Z,101067
2018-05-08T02:38:08.448Z,101060
2018-05-08T02:40:36.670Z,101066
2018-05-08T02:43:06.349Z,101055
2018-05-08T02:45:34.533Z,101047
2018-05-08T02:48:02.683Z,101048
2018-05-08T02:50:30.837Z,101051
2018-05-08T02:52:58.990Z,101055
2018-05-08T02:55:27.179Z,101054
2018-05-08T02:57:55.827Z,101058
2018-05-08T03:00:24.119Z,101050
2018-05-08T03:02:52.292Z,101051
2018-05-08T03:05:20.475Z,101055
2018-05-08T03:07:48.682Z,101048
2018-05-08T03:10:16.836Z,101051
2018-05-08T03:12:44.996Z,101052
2018-05-08T03:15:13.206Z,101054
2018-05-08T03:17:41.436Z,101047
2018-05-08T03:20:09.648Z,101047
2018-05-08T03:22:37.780Z,101045
2018-05-08T03:25:05.961Z,101042
2018-05-08T03:27:34.094Z,101034
2018-05-08T03:30:02.263Z,101038
2018-05-08T03:32:30.421Z,101040
2018-05-08T03:34:58.566Z,101037
2018-05-08T03:37:26.833Z,101043
2018-05-08T03:39:54.994Z,101044
2018-05-08T03:42:23.199Z,101043
2018-05-08T03:44:51.356Z,101046
2018-05-08T03:47:19.534Z,101040
2018-05-08T03:49:47.688Z,101042
2018-05-08T03:52:15.907Z,101045
2018-05-08T03:54:44.050Z,101042
2018-05-08T03:57:12.220Z,101047
2018-05-08T03:59:40.398Z,101046
2018-05-08T04:02:26.123Z,101041
2018-05-08T04:05:11.982Z,101038
2018-05-08T04:07:57.695Z,101040
2018-05-08T04:10:25.867Z,101032
2018-05-08T04:12:54.015Z,101026
2018-05-08T04:15:22.168Z,101032
2018-05-08T04:17:50.382Z,101036
2018-05-08T04:20:18.516Z,101031
2018-05-08T04:22:46.650Z,101025
2018-05-08T04:25:15.616Z,101029
2018-05-08T04:27:43.756Z,101021
2018-05-08T04:30:11.880Z,101018
2018-05-08T04:32:40.064Z,101020
2018-05-08T04:35:08.262Z,101016
2018-05-08T04:37:36.425Z,101014
2018-05-08T04:40:04.587Z,101015
2018-05-08T04:42:32.775Z,101009
2018-05-08T04:45:00.918Z,101011
2018-05-08T04:47:29.135Z,101011
2018-05-08T04:49:57.228Z,101011
2018-05-08T04:52:25.423Z,101008
2018-05-08T04:54:53.595Z,101003
2018-05-08T04:57:21.750Z,101000
2018-05-08T04:59:49.903Z,101006
2018-05-08T05:02:18.065Z,101004
2018-05-08T05:04:46.241Z,100999
2018-05-08T05:07:14.444Z,100999
2018-05-08T05:09:42.639Z,100995
2018-05-08T05:12:11.599Z,101000
2018-05-08T05:14:39.773Z,100997
2018-05-08T05:17:07.987Z,100988
2018-05-08T05:19:36.120Z,101002
2018-05-08T05:22:04.296Z,100998
2018-05-08T05:24:32.480Z,101001
2018-05-08T05:27:00.646Z,100993
2018-05-08T05:29:28.789Z,100999
2018-05-08T05:31:56.953Z,101005
2018-05-08T05:34:25.095Z,100991
2018-05-08T05:36:53.255Z,100991
2018-05-08T05:39:21.421Z,100993
2018-05-08T05:41:49.618Z,100992
2018-05-08T05:44:17.791Z,100988
2018-05-08T05:46:46.926Z,100988
2018-05-08T05:49:15.100Z,100983
2018-05-08T05:51:43.242Z,100985
2018-05-08T05:54:11.412Z,100985
2018-05-08T05:56:40.371Z,100970
2018-05-08T05:59:08.510Z,100974
2018-05-08T06:01:36.661Z,100976
2018-05-08T06:04:04.833Z,100974
2018-05-08T06:06:33.008Z,100973
2018-05-08T06:09:01.190Z,100977
2018-05-08T06:11:29.392Z,100974
2018-05-08T06:13:57.579Z,100969
2018-05-08T06:16:25.763Z,100966
2018-05-08T06:18:53.973Z,100971
2018-05-08T06:21:22.109Z,100965
2018-05-08T06:23:50.286Z,100961
2018-05-08T06:26:18.512Z,100960
2018-05-08T06:28:46.668Z,100955
2018-05-08T06:31:14.830Z,100955
2018-05-08T06:33:43.755Z,100960
2018-05-08T06:36:11.938Z,100969
2018-05-08T06:38:40.106Z,100965
2018-05-08T06:41:08.277Z,100965
2018-05-08T06:43:36.393Z,100964
2018-05-08T06:46:04.528Z,100965
2018-05-08T06:48:32.681Z,100971
2018-05-08T06:51:02.254Z,100959
2018-05-08T06:53:31.183Z,100961
2018-05-08T06:55:59.322Z,100953
2018-05-08T06:58:28.269Z,100958
2018-05-08T07:00:56.387Z,100956
2018-05-08T07:03:24.586Z,100957
2018-05-08T07:05:52.738Z,100960
2018-05-08T07:08:21.691Z,100949
2018-05-08T07:10:49.853Z,100953
2018-05-08T07:13:17.994Z,100952
2018-05-08T07:15:46.176Z,100953
2018-05-08T07:18:15.063Z,100947
2018-05-08T07:20:43.209Z,100947
2018-05-08T07:23:11.384Z,100949
2018-05-08T07:25:39.513Z,100948
2018-05-08T07:28:07.664Z,100941
2018-05-08T07:30:35.828Z,100948
2018-05-08T07:33:03.963Z,100941
2018-05-08T07:35:32.121Z,100938
2018-05-08T07:38:01.030Z,100934
2018-05-08T07:40:29.967Z,100932
2018-05-08T07:42:58.123Z,100926
2018-05-08T07:45:26.383Z,100885
2018-05-08T07:47:54.538Z,100908
2018-05-08T07:50:23.412Z,100923
2018-05-08T07:52:52.610Z,100918
2018-05-08T07:55:21.529Z,100922
2018-05-08T07:57:49.689Z,100923
2018-05-08T08:00:17.949Z,100922
2018-05-08T08:02:46.834Z,100921
2018-05-08T08:05:15.779Z,100920
2018-05-08T08:07:43.910Z,100918
2018-05-08T08:10:12.060Z,100914
2018-05-08T08:12:40.245Z,100909
2018-05-08T08:15:09.164Z,100913
2018-05-08T08:17:37.324Z,100917
2018-05-08T08:20:05.495Z,100909
2018-05-08T08:22:34.386Z,100913
2018-05-08T08:25:03.418Z,100911
2018-05-08T08:27:31.713Z,100914
2018-05-08T08:30:00.032Z,100900
2018-05-08T08:32:28.958Z,100893
2018-05-08T08:34:57.106Z,100895
2018-05-08T08:37:25.236Z,100887
2018-05-08T08:39:53.398Z,100886
2018-05-08T08:42:21.579Z,100889
2018-05-08T08:44:49.731Z,100884
2018-05-08T08:47:18.178Z,100887
2018-05-08T08:49:46.364Z,100875
2018-05-08T08:52:14.568Z,100882
2018-05-08T08:54:42.706Z,100878
2018-05-08T08:57:10.933Z,100866
2018-05-08T08:59:39.079Z,100872
2018-05-08T09:02:07.283Z,100872
2018-05-08T09:04:35.562Z,100868
2018-05-08T09:07:03.741Z,100861
2018-05-08T09:09:32.672Z,100869
2018-05-08T09:12:00.847Z,100865
2018-05-08T09:14:29.036Z,100863
2018-05-08T09:16:57.166Z,100853
2018-05-08T09:19:26.101Z,100854
2018-05-08T09:21:54.322Z,100856
2018-05-08T09:24:22.489Z,100852
2018-05-08T09:26:51.401Z,100848
2018-05-08T09:29:19.540Z,100843
2018-05-08T09:31:47.724Z,100836
2018-05-08T09:34:15.878Z,100839
2018-05-08T09:36:44.058Z,100837
2018-05-08T09:39:12.266Z,100843
2018-05-08T09:41:40.410Z,100844
2018-05-08T09:44:09.383Z,100830
2018-05-08T09:46:37.525Z,100825
2018-05-08T09:49:05.717Z,100829
2018-05-08T09:51:34.673Z,100820
2018-05-08T09:54:02.838Z,100824
2018-05-08T09:56:31.127Z,100822
2018-05-08T09:58:59.278Z,100818
2018-05-08T10:01:27.422Z,100814
2018-05-08T10:03:55.614Z,100813
2018-05-08T10:06:24.530Z,100800
2018-05-08T10:08:52.671Z,100794
2018-05-08T10:11:21.616Z,100797
2018-05-08T10:13:49.753Z,100797
2018-05-08T10:16:18.813Z,100790
2018-05-08T10:18:46.980Z,100799
2018-05-08T10:21:15.164Z,100790
2018-05-08T10:23:43.327Z,100778
2018-05-08T10:26:12.286Z,100784
2018-05-08T10:28:40.531Z,100785
2018-05-08T10:31:08.648Z,100779
2018-05-08T10:33:36.882Z,100773
2018-05-08T10:36:05.026Z,100770
2018-05-08T10:38:33.201Z,100767
2018-05-08T10:41:01.529Z,100752
2018-05-08T10:43:29.669Z,100755
2018-05-08T10:45:57.822Z,100762
2018-05-08T10:48:26.146Z,100765
2018-05-08T10:50:54.504Z,100748
2018-05-08T10:53:22.707Z,100744
2018-05-08T10:55:50.871Z,100743
2018-05-08T10:58:19.032Z,100740
2018-05-08T11:00:47.167Z,100743
2018-05-08T11:03:16.090Z,100738
2018-05-08T11:05:44.272Z,100735
2018-05-08T11:08:12.407Z,100736
2018-05-08T11:10:41.329Z,100737
2018-05-08T11:13:09.495Z,100725
2018-05-08T11:15:37.634Z,100731
2018-05-08T11:18:05.772Z,100720
2018-05-08T11:20:33.946Z,100715
2018-05-08T11:23:02.218Z,100713
2018-05-08T11:25:30.541Z,100713
2018-05-08T11:27:59.297Z,100713
2018-05-08T11:30:27.563Z,100708
2018-05-08T11:32:55.797Z,100704
2018-05-08T11:35:23.985Z,100708
2018-05-08T11:37:52.128Z,100688
2018-05-08T11:40:20.299Z,100698
2018-05-08T11:42:48.467Z,100681
2018-05-08T11:45:17.418Z,100684
2018-05-08T11:47:45.650Z,100686
2018-05-08T11:50:13.787Z,100674
2018-05-08T11:52:41.939Z,100668
2018-05-08T11:55:10.186Z,100672
2018-05-08T11:57:38.368Z,100673
2018-05-08T12:00:06.677Z,100665
2018-05-08T12:02:34.860Z,100661
2018-05-08T12:05:03.067Z,100669
2018-05-08T12:07:31.215Z,100662
2018-05-08T12:09:59.482Z,100652
2018-05-08T12:12:27.740Z,100652
2018-05-08T12:14:55.975Z,100649
2018-05-08T12:17:24.087Z,100636
2018-05-08T12:19:52.243Z,100646
2018-05-08T12:22:20.534Z,100651
2018-05-08T12:24:48.676Z,100636
2018-05-08T12:27:16.983Z,100636
2018-05-08T12:29:45.175Z,100630
2018-05-08T12:32:13.370Z,100627
2018-05-08T12:34:42.466Z,100621
2018-05-08T12:37:10.622Z,100611
2018-05-08T12:39:39.669Z,100617
2018-05-08T12:42:07.837Z,100622
2018-05-08T12:44:36.003Z,100605
2018-05-08T12:47:04.221Z,100603
2018-05-08T12:49:32.426Z,100603
2018-05-08T12:52:00.741Z,100605
2018-05-08T12:54:29.022Z,100599
2018-05-08T12:56:57.185Z,100597
2018-05-08T12:59:25.438Z,100592
2018-05-08T13:01:53.644Z,100589
2018-05-08T13:04:21.883Z,100588
2018-05-08T13:06:50.169Z,100589
2018-05-08T13:09:18.332Z,100589
2018-05-08T13:11:46.530Z,100587
2018-05-08T13:14:15.344Z,100575
2018-05-08T13:16:43.593Z,100572
2018-05-08T13:19:11.737Z,100573
2018-05-08T13:21:39.885Z,100575
2018-05-08T13:24:08.097Z,100563
2018-05-08T13:26:36.229Z,100566
2018-05-08T13:29:04.363Z,100555
2018-05-08T13:31:32.719Z,100547
2018-05-08T13:34:00.862Z,100554
2018-05-08T13:36:29.138Z,100552
2018-05-08T13:38:57.439Z,100553
2018-05-08T13:41:25.596Z,100549
2018-05-08T13:43:53.742Z,100545
2018-05-08T13:46:21.979Z,100541
2018-05-08T13:48:50.134Z,100544
2018-05-08T13:51:18.349Z,100541
2018-05-08T13:53:46.569Z,100532
2018-05-08T13:56:14.733Z,100528
2018-05-08T13:58:42.996Z,100528
2018-05-08T14:01:11.902Z,100524
2018-05-08T14:03:40.847Z,100518
2018-05-08T14:06:08.998Z,100529
2018-05-08T14:08:37.219Z,100520
2018-05-08T14:11:05.470Z,100515
2018-05-08T14:13:33.624Z,100511
2018-05-08T14:16:01.830Z,100508
2018-05-08T14:18:30.163Z,100504
2018-05-08T14:20:58.353Z,100509
2018-05-08T14:23:26.540Z,100506
2018-05-08T14:25:54.723Z,100504
2018-05-08T14:28:22.883Z,100494
2018-05-08T14:30:51.015Z,100493
2018-05-08T14:33:19.173Z,100492
2018-05-08T14:35:48.126Z,100492
2018-05-08T14:38:16.255Z,100490
2018-05-08T14:40:44.395Z,100492
2018-05-08T14:43:13.319Z,100480
2018-05-08T14:45:41.472Z,100476
2018-05-08T14:48:09.621Z,100479
2018-05-08T14:50:37.911Z,100470
2018-05-08T14:53:06.097Z,100465
2018-05-08T14:55:34.338Z,100473
2018-05-08T14:58:02.478Z,100471
2018-05-08T15:00:30.669Z,100476
2018-05-08T15:02:58.800Z,100463
2018-05-08T15:05:26.957Z,100461
2018-05-08T15:07:55.111Z,100456
2018-05-08T15:10:23.307Z,100461
2018-05-08T15:12:51.596Z,100461
2018-05-08T15:15:19.758Z,100453
2018-05-08T15:17:48.197Z,100446
2018-05-08T15:20:16.317Z,100447
2018-05-08T15:22:44.480Z,100452
2018-05-08T15:25:12.623Z,100444
2018-05-08T15:27:40.823Z,100443
2018-05-08T15:30:09.967Z,100436
2018-05-08T15:32:39.165Z,100439
2018-05-08T15:35:07.339Z,100441
2018-05-08T15:37:35.473Z,100433
2018-05-08T15:40:03.606Z,100432
2018-05-08T15:42:31.779Z,100431
2018-05-08T15:44:59.913Z,100424
2018-05-08T15:47:28.061Z,100426
2018-05-08T15:49:56.201Z,100425
2018-05-08T15:52:24.376Z,100419
2018-05-08T15:54:53.280Z,100425
2018-05-08T15:57:22.245Z,100413
2018-05-08T15:59:50.377Z,100414
2018-05-08T16:02:18.568Z,100401
2018-05-08T16:04:46.760Z,100406
2018-05-08T16:07:14.966Z,100404
2018-05-08T16:09:43.153Z,100396
2018-05-08T16:12:11.314Z,100404
2018-05-08T16:14:40.229Z,100406
2018-05-08T16:17:08.400Z,100405
2018-05-08T16:19:36.544Z,100415
2018-05-08T16:22:05.463Z,100409
2018-05-08T16:24:33.655Z,100402
2018-05-08T16:27:01.832Z,100405
2018-05-08T16:29:29.967Z,100392
2018-05-08T16:31:58.137Z,100400
2018-05-08T16:34:26.263Z,100396
2018-05-08T16:36:54.415Z,100392
2018-05-08T16:39:22.794Z,100387
2018-05-08T16:41:51.642Z,100396
2018-05-08T16:44:20.567Z,100395
2018-05-08T16:46:48.799Z,100392
2018-05-08T16:49:17.695Z,100398
2018-05-08T16:51:45.833Z,100383
2018-05-08T16:54:13.974Z,100387
2018-05-08T16:56:42.101Z,100382
2018-05-08T16:59:10.272Z,100379
2018-05-08T17:01:39.210Z,100384
2018-05-08T17:04:07.404Z,100383
2018-05-08T17:06:35.570Z,100384
2018-05-08T17:09:03.728Z,100389
2018-05-08T17:11:31.921Z,100379
2018-05-08T17:14:00.173Z,100381
2018-05-08T17:16:28.361Z,100382
2018-05-08T17:18:56.739Z,100381
2018-05-08T17:21:24.920Z,100380
2018-05-08T17:23:53.086Z,100375
2018-05-08T17:26:21.232Z,100378
2018-05-08T17:28:49.425Z,100366
2018-05-08T17:31:17.650Z,100376
2018-05-08T17:33:46.562Z,100377
2018-05-08T17:36:14.730Z,100376
2018-05-08T17:38:42.877Z,100367
2018-05-08T17:41:11.790Z,100376
2018-05-08T17:43:39.922Z,100370
2018-05-08T17:46:08.072Z,100374
2018-05-08T17:48:36.249Z,100372
2018-05-08T17:51:06.014Z,100373
2018-05-08T17:53:34.937Z,100370
2018-05-08T17:56:03.282Z,100368
2018-05-08T17:58:31.466Z,100373
2018-05-08T18:00:59.628Z,100368
2018-05-08T18:03:27.908Z,100364
2018-05-08T18:05:56.095Z,100367
2018-05-08T18:08:24.268Z,100368
2018-05-08T18:10:52.420Z,100368
2018-05-08T18:13:21.433Z,100368
2018-05-08T18:15:49.573Z,100371
2018-05-08T18:18:18.510Z,100372
2018-05-08T18:20:46.674Z,100368
2018-05-08T18:23:14.813Z,100364
2018-05-08T18:25:43.839Z,100369
2018-05-08T18:28:11.933Z,100374
2018-05-08T18:30:40.107Z,100368
2018-05-08T18:33:08.304Z,100368
2018-05-08T18:35:36.519Z,100368
2018-05-08T18:38:04.656Z,100367
2018-05-08T18:40:32.818Z,100371
2018-05-08T18:43:00.980Z,100372
2018-05-08T18:45:29.121Z,100362
2018-05-08T18:47:57.250Z,100369
2018-05-08T18:50:26.175Z,100367
2018-05-08T18:52:54.349Z,100371
2018-05-08T18:55:22.507Z,100369
2018-05-08T18:57:51.399Z,100363
2018-05-08T19:00:21.447Z,100366
2018-05-08T19:02:49.512Z,100383
2018-05-08T19:05:17.697Z,100372
2018-05-08T19:07:45.879Z,100369
2018-05-08T19:10:14.071Z,100377
2018-05-08T19:12:42.355Z,100380
2018-05-08T19:15:16.882Z,100388
2018-05-08T19:17:45.900Z,100384
2018-05-08T19:20:14.123Z,100383
2018-05-08T19:22:42.287Z,100383
2018-05-08T19:25:10.431Z,100391
2018-05-08T19:27:38.577Z,100380
2018-05-08T19:30:12.117Z,100385
2018-05-08T19:32:40.303Z,100386
2018-05-08T19:35:13.928Z,100396
2018-05-08T19:37:47.595Z,100389
2018-05-08T19:40:16.585Z,100393
2018-05-08T19:42:44.729Z,100388
2018-05-08T19:45:12.880Z,100388
2018-05-08T19:47:41.787Z,100394
2018-05-08T19:50:09.960Z,100391
2018-05-08T19:52:38.148Z,100385
2018-05-08T19:55:06.315Z,100388
2018-05-08T19:57:35.214Z,100387
2018-05-08T20:00:03.364Z,100394
2018-05-08T20:02:32.286Z,100382
2018-05-08T20:05:01.027Z,100391
2018-05-08T20:07:29.211Z,100384
2018-05-08T20:09:57.562Z,100391
2018-05-08T20:12:25.749Z,100386
2018-05-08T20:14:54.741Z,100391
2018-05-08T20:17:23.765Z,100398
2018-05-08T20:19:51.928Z,100398
2018-05-08T20:22:20.916Z,100398
2018-05-08T20:24:49.053Z,100403
2018-05-08T20:27:17.236Z,100403
2018-05-08T20:29:45.371Z,100397
2018-05-08T20:32:13.566Z,100404
2018-05-08T20:34:41.751Z,100400
2018-05-08T20:37:09.910Z,100400
2018-05-08T20:39:38.072Z,100394
2018-05-08T20:42:06.228Z,100401
2018-05-08T20:44:34.388Z,100398
2018-05-08T20:47:02.560Z,100403
2018-05-08T20:49:30.761Z,100399
2018-05-08T20:51:58.941Z,100402
2018-05-08T20:54:27.856Z,100400
2018-05-08T20:56:56.046Z,100407
2018-05-08T20:59:24.182Z,100398
2018-05-08T21:01:52.341Z,100394
2018-05-08T21:04:20.470Z,100402
2018-05-08T21:06:48.640Z,100404
2018-05-08T21:09:17.572Z,100400
2018-05-08T21:11:45.710Z,100399
2018-05-08T21:14:13.867Z,100401
2018-05-08T21:16:42.815Z,100401
2018-05-08T21:19:11.019Z,100410
2018-05-08T21:21:39.160Z,100405
2018-05-08T21:24:07.316Z,100401
2018-05-08T21:26:35.835Z,100407
2018-05-08T21:29:04.011Z,100408
2018-05-08T21:31:32.227Z,100408
2018-05-08T21:34:00.360Z,100403
2018-05-08T21:36:28.491Z,100414
2018-05-08T21:38:56.638Z,100412
2018-05-08T21:41:24.783Z,100409
2018-05-08T21:43:52.946Z,100416
2018-05-08T21:46:21.063Z,100413
2018-05-08T21:48:49.178Z,100415
2018-05-08T21:51:17.330Z,100418
2018-05-08T21:53:45.494Z,100410
2018-05-08T21:56:13.670Z,100408
2018-05-08T21:58:41.862Z,100412
2018-05-08T22:01:10.555Z,100407
2018-05-08T22:03:38.711Z,100402
2018-05-08T22:06:06.900Z,100409
2018-05-08T22:08:35.055Z,100406
2018-05-08T22:11:03.270Z,100418
2018-05-08T22:13:32.161Z,100410
2018-05-08T22:16:00.306Z,100415
2018-05-08T22:18:28.437Z,100418
2018-05-08T22:20:56.583Z,100414
2018-05-08T22:23:24.706Z,100411
2018-05-08T22:25:52.836Z,100412
2018-05-08T22:28:20.979Z,100415
2018-05-08T22:30:49.141Z,100408
2018-05-08T22:33:17.276Z,100412
2018-05-08T22:35:45.502Z,100413
2018-05-08T22:38:13.646Z,100408
2018-05-08T22:40:41.758Z,100405
2018-05-08T22:43:10.676Z,100406
2018-05-08T22:45:38.817Z,100406
2018-05-08T22:48:07.744Z,100405
2018-05-08T22:50:35.900Z,100405
2018-05-08T22:53:04.033Z,100398
2018-05-08T22:55:32.177Z,100406
2018-05-08T22:58:00.297Z,100402
2018-05-08T23:00:28.486Z,100396
2018-05-08T23:02:57.381Z,100405
2018-05-08T23:05:25.521Z,100403
2018-05-08T23:07:53.675Z,100402
2018-05-08T23:10:21.875Z,100404
2018-05-08T23:12:50.010Z,100394
2018-05-08T23:15:18.149Z,100400
2018-05-08T23:17:46.268Z,100405
2018-05-08T23:20:14.396Z,100395
2018-05-08T23:22:42.518Z,100392
2018-05-08T23:25:10.689Z,100388
2018-05-08T23:27:38.824Z,100393
2018-05-08T23:30:06.986Z,100384
2018-05-08T23:32:35.129Z,100385
2018-05-08T23:35:03.271Z,100387
2018-05-08T23:37:31.416Z,100383
2018-05-08T23:39:59.627Z,100383
2018-05-08T23:42:28.038Z,100383
2018-05-08T23:44:56.946Z,100382
2018-05-08T23:47:25.085Z,100383
2018-05-08T23:49:53.992Z,100383
2018-05-08T23:52:22.921Z,100377
2018-05-08T23:54:51.051Z,100380
2018-05-08T23:57:19.201Z,100377
2018-05-08T23:59:47.355Z,100378
